KOWI

Details ICAO KOWI
Name OTTAWA MUNI
Region United States
Timezone America/Chicago (UTC-6.0)
Plans Departing 3
Arriving 2
Stats Elevation 966 ft / 294 m (AMSL)
Location 38.538533° -95.253209°
Runways 3
Magnetic Variation 2.163° E
Sunrise 2017-12-17 13:34:14 UTC / 2017-12-17 07:34:14 Local
Sunset 2017-12-17 23:03:01 UTC / 2017-12-17 17:03:01 Local
Advertisement - Login to hide

Runways

ID Width Length Bearing (true) Bearing (mag) Surface Threshold Offset Overrun Length
05 81 ft / 25 m 2,341 ft / 713 m 51.45° 49.29° Grass 0 ft / 0 m 0 ft / 0 m
13 72 ft / 22 m 1,898 ft / 578 m 131.42° 129.26° Grass 0 ft / 0 m 0 ft / 0 m
17 75 ft / 23 m 4,509 ft / 1,374 m 179.80° 177.64° Asphalt 0 ft / 0 m 0 ft / 0 m
23 81 ft / 25 m 2,341 ft / 713 m 231.46° 229.30° Grass 0 ft / 0 m 0 ft / 0 m
31 72 ft / 22 m 1,898 ft / 578 m 311.42° 309.26° Grass 0 ft / 0 m 0 ft / 0 m
35 75 ft / 23 m 4,509 ft / 1,374 m 359.80° 357.64° Asphalt 0 ft / 0 m 0 ft / 0 m

Map

Weather


0- 5 10 15 20 25 30 35+ Temperature / ° C

Clouds and Precipitation
Forecast for 2017-12-17 06:00 UTC. Updated an hour ago

Ground ~20,000 ft ~40,000 ft Winds

METAR

KOWI 170635Z AUTO 18011KT 10SM BKN090 OVC120 10/M02 A2996 RMK AO2

TAF

Not found

Frequencies

Unicom 122.80 MHz CTAF/UNICOM
Warning: Do not use this data for real-world aviation or navigation. No guarantee of current accuracy is given.